KFOE/FOE METAR and TAF weather

Enter ICAO airport designator
Station Type Date Time Source
KFOE METAR 2020/12/05 05:53 UTC NOAA

KFOE 050553Z AUTO 19003KT 10SM CLR M01/M04 A3011 RMK AO2 SLP203 T10111044 10056 21017 401281061 51003


Station Type Date Time Source
KFOE Decoded METAR 2020/12/05 05:53 UTC NOAA

FORBES FIELD, KS, United States (KFOE) 38-56N 95-39W 320M
Dec 05, 2020 - 12:53 AM EST / 2020.12.05 0553 UTC
Wind: from the S (190 degrees) at 3 MPH (3 KT):0
Visibility: 10 mile(s):0
Sky conditions: clear
Temperature: 30.0 F (-1.1 C)
Dew Point: 24.1 F (-4.4 C)
Relative Humidity: 78%
Pressure (altimeter): 30.11 in. Hg (1019 hPa)
Pressure tendency: 0.01 inches (0.3 hPa) higher than three hours ago
ob: KFOE 050553Z AUTO 19003KT 10SM CLR M01/M04 A3011 RMK AO2 SLP203 T10111044 10056 21017 401281061 51003
cycle: 6

Station Type Date Time Source
KFOE TAF 2020/12/05 06:28 UTC NOAA

TAF KFOE 050526Z 0506/0606 27003KT P6SM SKC
FM051600 33011KT P6SM SKC
FM052300 31003KT P6SM SKC

Example: see airport list